createdAt,value
2023-05-11T00:00:01.014Z,100706.56
2023-05-11T00:02:27.309Z,100712.59
2023-05-11T00:04:53.919Z,100715.72
2023-05-11T00:07:20.152Z,100713.06
2023-05-11T00:09:46.360Z,100704.94
2023-05-11T00:12:12.579Z,100696.53
2023-05-11T00:14:38.805Z,100701.00
2023-05-11T00:17:05.045Z,100769.69
2023-05-11T00:19:31.306Z,100754.44
2023-05-11T00:21:57.848Z,100759.75
2023-05-11T00:24:24.235Z,100755.00
2023-05-11T00:26:50.481Z,100733.66
2023-05-11T00:29:16.699Z,100725.78
2023-05-11T00:31:42.977Z,100723.16
2023-05-11T00:34:09.210Z,100733.97
2023-05-11T00:36:35.527Z,100723.16
2023-05-11T00:39:01.843Z,100703.16
2023-05-11T00:41:28.086Z,100692.09
2023-05-11T00:43:54.325Z,100692.09
2023-05-11T00:46:20.577Z,100689.25
2023-05-11T00:48:46.848Z,100695.56
2023-05-11T00:51:13.075Z,100700.56
2023-05-11T00:53:39.315Z,100722.97
2023-05-11T00:56:05.593Z,100725.59
2023-05-11T00:58:31.833Z,100720.06
2023-05-11T01:00:58.114Z,100715.56
2023-05-11T01:03:24.408Z,100716.88
2023-05-11T01:06:09.552Z,100726.88
2023-05-11T01:08:40.083Z,100742.41
2023-05-11T01:11:06.259Z,100765.59
2023-05-11T01:13:33.890Z,100775.31
2023-05-11T01:16:00.752Z,100764.53
2023-05-11T01:18:30.876Z,100776.09
2023-05-11T01:20:58.548Z,100777.66
2023-05-11T01:23:29.831Z,100779.25
2023-05-11T01:26:16.288Z,100760.06
2023-05-11T01:28:49.183Z,100753.25
2023-05-11T01:31:15.474Z,100755.59
2023-05-11T01:33:47.412Z,100742.72
2023-05-11T01:36:13.633Z,100744.78
2023-05-11T01:38:40.765Z,100754.03
2023-05-11T01:41:12.073Z,100746.38
2023-05-11T01:43:38.289Z,100734.81
2023-05-11T01:46:04.604Z,100729.81
2023-05-11T01:48:31.029Z,100736.91
2023-05-11T01:50:59.095Z,100719.06
2023-05-11T01:53:25.311Z,100726.69
2023-05-11T01:55:51.533Z,100745.63
2023-05-11T01:58:17.781Z,100758.22
2023-05-11T02:00:44.029Z,100775.09
2023-05-11T02:03:10.310Z,100793.22
2023-05-11T02:05:36.671Z,100822.41
2023-05-11T02:08:03.107Z,100825.00
2023-05-11T02:10:29.353Z,100820.06
2023-05-11T02:12:55.612Z,100826.59
2023-05-11T02:15:21.858Z,100815.56
2023-05-11T02:17:48.151Z,100904.66
2023-05-11T02:20:14.460Z,100973.94
2023-05-11T02:22:40.785Z,101015.38
2023-05-11T02:25:07.771Z,101001.25
2023-05-11T02:27:33.974Z,100946.41
2023-05-11T02:30:00.240Z,100894.69
2023-05-11T02:32:26.495Z,100904.34
2023-05-11T02:34:54.620Z,100889.94
2023-05-11T02:37:21.788Z,100843.19
2023-05-11T02:39:48.217Z,100810.63
2023-05-11T02:42:15.207Z,100811.38
2023-05-11T02:44:44.103Z,100891.44
2023-05-11T02:47:10.342Z,100872.03
2023-05-11T02:49:36.555Z,100853.94
2023-05-11T02:52:02.890Z,100824.28
2023-05-11T02:54:29.099Z,100803.50
2023-05-11T02:56:55.323Z,100786.69
2023-05-11T02:59:21.950Z,100768.59
2023-05-11T03:01:48.270Z,100752.03
2023-05-11T03:04:14.592Z,100743.66
2023-05-11T03:06:40.810Z,100737.06
2023-05-11T03:09:09.339Z,100833.94
2023-05-11T03:11:36.415Z,100822.41
2023-05-11T03:14:02.624Z,100804.81
2023-05-11T03:16:28.863Z,100789.59
2023-05-11T03:18:55.132Z,100778.03
2023-05-11T03:21:21.560Z,100844.91
2023-05-11T03:23:47.801Z,100855.47
2023-05-11T03:26:14.025Z,100815.84
2023-05-11T03:28:40.472Z,100780.66
2023-05-11T03:31:06.701Z,100788.53
2023-05-11T03:33:32.902Z,100791.69
2023-05-11T03:35:59.118Z,100805.59
2023-05-11T03:38:25.322Z,100768.84
2023-05-11T03:40:52.005Z,100751.53
2023-05-11T03:43:18.219Z,100724.72
2023-05-11T03:45:44.505Z,100716.31
2023-05-11T03:48:10.807Z,100763.88
2023-05-11T03:50:37.883Z,100761.75
2023-05-11T03:53:04.347Z,100763.59
2023-05-11T03:55:30.559Z,100761.22
2023-05-11T03:57:56.765Z,100727.38
2023-05-11T04:00:22.971Z,100719.19
2023-05-11T04:02:49.254Z,100710.25
2023-05-11T04:05:15.510Z,100750.47
2023-05-11T04:07:41.747Z,100794.59
2023-05-11T04:10:08.112Z,100738.63
2023-05-11T04:12:34.473Z,100702.63
2023-05-11T04:15:00.825Z,100670.84
2023-05-11T04:17:27.111Z,100686.88
2023-05-11T04:19:53.313Z,100760.72
2023-05-11T04:22:19.517Z,100782.75
2023-05-11T04:24:45.721Z,100762.53
2023-05-11T04:27:11.926Z,100772.53
2023-05-11T04:29:38.133Z,100769.13
2023-05-11T04:32:04.517Z,100749.41
2023-05-11T04:34:30.734Z,100720.47
2023-05-11T04:36:56.963Z,100702.06
2023-05-11T04:39:23.156Z,100702.88
2023-05-11T04:41:49.371Z,100677.34
2023-05-11T04:44:15.581Z,100677.56
2023-05-11T04:46:41.839Z,100673.38
2023-05-11T04:49:08.089Z,100709.66
2023-05-11T04:51:34.314Z,100920.69
2023-05-11T04:54:00.527Z,101077.34
2023-05-11T04:56:26.741Z,101073.97
2023-05-11T04:58:52.947Z,100978.19
2023-05-11T05:01:19.193Z,100874.44
2023-05-11T05:03:47.735Z,100792.19
2023-05-11T05:06:13.959Z,100775.59
2023-05-11T05:08:40.163Z,100755.38
2023-05-11T05:11:06.395Z,100734.31
2023-05-11T05:13:32.595Z,100713.25
2023-05-11T05:15:58.808Z,100833.16
2023-05-11T05:18:25.038Z,100996.66
2023-05-11T05:20:51.280Z,101076.53
2023-05-11T05:23:17.494Z,101049.19
2023-05-11T05:25:43.708Z,101015.84
2023-05-11T05:28:09.924Z,101044.75
2023-05-11T05:30:36.198Z,101018.19
2023-05-11T05:33:02.760Z,100969.09
2023-05-11T05:35:29.019Z,100938.84
2023-05-11T05:37:55.214Z,100893.88
2023-05-11T05:40:21.617Z,100836.00
2023-05-11T05:42:47.897Z,100875.94
2023-05-11T05:45:14.926Z,100896.69
2023-05-11T05:47:41.344Z,100905.91
2023-05-11T05:50:08.344Z,100874.81
2023-05-11T05:52:34.553Z,100869.56
2023-05-11T05:55:00.773Z,100896.38
2023-05-11T05:57:26.989Z,100898.47
2023-05-11T05:59:53.209Z,100885.56
2023-05-11T06:02:19.453Z,100877.38
2023-05-11T06:04:45.753Z,100859.78
2023-05-11T06:07:11.964Z,100863.16
2023-05-11T06:09:39.295Z,100847.84
2023-05-11T06:12:05.777Z,100829.34
2023-05-11T06:14:31.988Z,100813.22
2023-05-11T06:16:58.195Z,100803.03
2023-05-11T06:19:24.407Z,100783.16
2023-05-11T06:21:50.624Z,100768.50
2023-05-11T06:24:16.827Z,100727.50
2023-05-11T06:26:43.051Z,100687.19
2023-05-11T06:29:09.263Z,100705.44
2023-05-11T06:31:35.532Z,100712.81
2023-05-11T06:34:01.763Z,100624.84
2023-05-11T06:36:27.985Z,100598.03
2023-05-11T06:38:54.232Z,100622.28
2023-05-11T06:41:20.485Z,100619.59
2023-05-11T06:43:46.708Z,100543.59
2023-05-11T06:46:12.974Z,100605.06
2023-05-11T06:48:39.274Z,100583.66
2023-05-11T06:51:05.500Z,100588.44
2023-05-11T06:53:31.724Z,100634.50
2023-05-11T06:55:57.941Z,100629.00
2023-05-11T06:58:24.156Z,100693.38
2023-05-11T07:00:50.422Z,100578.31
2023-05-11T07:03:16.692Z,100487.72
2023-05-11T07:05:42.979Z,100421.81
2023-05-11T07:08:09.194Z,100335.16
2023-05-11T07:10:35.670Z,100399.16
2023-05-11T07:13:01.876Z,100400.25
2023-05-11T07:15:28.147Z,100433.50
2023-05-11T07:17:54.446Z,100578.81
2023-05-11T07:20:21.084Z,100577.25
2023-05-11T07:22:47.486Z,100603.63
2023-05-11T07:25:13.728Z,100564.78
2023-05-11T07:27:39.932Z,100435.88
2023-05-11T07:30:06.415Z,100255.06
2023-05-11T07:32:32.687Z,100205.84
2023-05-11T07:34:58.951Z,100274.78
2023-05-11T07:37:25.180Z,100111.25
2023-05-11T07:39:51.421Z,100097.31
2023-05-11T07:42:17.656Z,100082.25
2023-05-11T07:44:43.887Z,100284.06
2023-05-11T07:47:10.116Z,100123.91
2023-05-11T07:49:43.375Z,100248.75
2023-05-11T07:52:10.575Z,100198.16
2023-05-11T07:54:36.845Z,100189.31
2023-05-11T07:57:03.090Z,100390.69
2023-05-11T07:59:29.340Z,100324.09
2023-05-11T08:01:55.590Z,100240.38
2023-05-11T08:04:21.841Z,100217.03
2023-05-11T08:06:48.068Z,100249.22
2023-05-11T08:09:14.655Z,100182.34
2023-05-11T08:11:40.937Z,100155.38
2023-05-11T08:14:07.210Z,100142.56
2023-05-11T08:16:33.487Z,100173.22
2023-05-11T08:18:59.775Z,100203.31
2023-05-11T08:21:26.066Z,100230.25
2023-05-11T08:23:52.272Z,100162.72
2023-05-11T08:26:18.487Z,99922.59
2023-05-11T08:28:44.679Z,99808.91
2023-05-11T08:31:10.962Z,99773.47
2023-05-11T08:33:38.694Z,99762.50
2023-05-11T08:36:05.802Z,99829.34
2023-05-11T08:38:32.020Z,100006.94
2023-05-11T08:40:58.246Z,99834.91
2023-05-11T08:43:24.451Z,99861.13
2023-05-11T08:45:50.672Z,99932.72
2023-05-11T08:48:16.883Z,99678.56
2023-05-11T08:50:46.352Z,99833.09
2023-05-11T08:53:12.715Z,99818.06
2023-05-11T08:55:38.997Z,99652.47
2023-05-11T08:58:05.211Z,99532.44
2023-05-11T09:00:31.432Z,99658.81
2023-05-11T09:02:57.678Z,99664.78
2023-05-11T09:05:24.017Z,99614.66
2023-05-11T09:07:50.359Z,99672.81
2023-05-11T09:10:16.574Z,99630.38
2023-05-11T09:12:42.836Z,99471.81
2023-05-11T09:15:09.268Z,99658.72
2023-05-11T09:17:35.528Z,99302.19
2023-05-11T09:20:02.565Z,99607.13
2023-05-11T09:22:31.395Z,99835.47
2023-05-11T09:24:59.524Z,99626.00
2023-05-11T09:27:25.750Z,99712.53
2023-05-11T09:29:53.014Z,99721.09
2023-05-11T09:32:19.242Z,99482.50
2023-05-11T09:34:46.115Z,98926.97
2023-05-11T09:37:15.916Z,99375.56
2023-05-11T09:39:59.176Z,98921.25
2023-05-11T09:42:29.186Z,99270.41
2023-05-11T09:44:55.384Z,99247.50
2023-05-11T09:47:21.601Z,99154.16
2023-05-11T09:49:47.915Z,99372.47
2023-05-11T09:52:15.062Z,99589.81
2023-05-11T09:54:44.755Z,99746.66
2023-05-11T09:57:23.847Z,99355.91
2023-05-11T09:59:50.058Z,99370.47
2023-05-11T10:02:20.369Z,99354.97
2023-05-11T10:04:47.059Z,99300.94
2023-05-11T10:07:22.960Z,99300.16
2023-05-11T10:09:49.159Z,98994.84
2023-05-11T10:12:15.368Z,98887.53
2023-05-11T10:14:41.574Z,98632.97
2023-05-11T10:17:07.803Z,98484.00
2023-05-11T10:19:34.013Z,98127.81
2023-05-11T10:22:00.263Z,98019.75
2023-05-11T10:24:26.488Z,98019.75
2023-05-11T10:26:52.702Z,98026.38
2023-05-11T10:29:18.912Z,97807.97
2023-05-11T10:31:45.121Z,98071.97
2023-05-11T10:34:11.328Z,97768.03
2023-05-11T10:36:37.543Z,97515.06
2023-05-11T10:39:03.776Z,97308.56
2023-05-11T10:41:33.888Z,97596.56
2023-05-11T10:44:18.931Z,97945.63
2023-05-11T10:47:03.644Z,97797.09
2023-05-11T10:49:39.900Z,98099.94
2023-05-11T10:52:24.867Z,98013.94
2023-05-11T10:55:02.024Z,97962.66
2023-05-11T10:57:28.191Z,98116.97
2023-05-11T11:00:13.314Z,98240.88
2023-05-11T11:02:39.609Z,98401.34
2023-05-11T11:05:06.002Z,98379.63
2023-05-11T11:07:32.237Z,98414.56
2023-05-11T11:09:59.155Z,98050.31
2023-05-11T11:12:25.787Z,98071.53
2023-05-11T11:14:55.544Z,98281.66
2023-05-11T11:17:22.271Z,98096.66
2023-05-11T11:19:48.499Z,98059.84
2023-05-11T11:22:33.591Z,98298.91
2023-05-11T11:24:59.801Z,98515.53
2023-05-11T11:27:41.211Z,98721.53
2023-05-11T11:30:19.514Z,98417.41
2023-05-11T11:32:49.188Z,98486.16
2023-05-11T11:35:33.983Z,98712.22
2023-05-11T11:38:00.474Z,98596.50
2023-05-11T11:40:46.911Z,98740.56
2023-05-11T11:43:16.669Z,98831.19
2023-05-11T11:45:52.068Z,98902.13
2023-05-11T11:48:22.167Z,98788.22
2023-05-11T11:50:48.592Z,98821.19
2023-05-11T11:53:33.692Z,98869.56
2023-05-11T11:55:59.899Z,98612.22
2023-05-11T11:58:41.216Z,98490.31
2023-05-11T12:01:07.770Z,98750.31
2023-05-11T12:03:35.359Z,98655.56
2023-05-11T12:06:01.732Z,98415.22
2023-05-11T12:08:29.018Z,98279.31
2023-05-11T12:10:55.230Z,98498.31
2023-05-11T12:13:21.467Z,98463.75
2023-05-11T12:15:47.684Z,98354.03
2023-05-11T12:18:20.492Z,98501.19
2023-05-11T12:20:46.755Z,98541.94
2023-05-11T12:23:13.037Z,98714.00
2023-05-11T12:25:39.238Z,98224.34
2023-05-11T12:28:05.448Z,98556.59
2023-05-11T12:30:32.114Z,98379.91
2023-05-11T12:32:58.357Z,98620.41
2023-05-11T12:35:34.112Z,98374.06
2023-05-11T12:38:00.796Z,98293.19
2023-05-11T12:40:27.028Z,98269.63
2023-05-11T12:42:53.713Z,98072.47
2023-05-11T12:45:20.235Z,98240.00
2023-05-11T12:47:47.321Z,98461.19
2023-05-11T12:50:13.570Z,98356.00
2023-05-11T12:52:39.784Z,98461.13
2023-05-11T12:55:06.203Z,98758.66
2023-05-11T12:57:32.414Z,98715.41
2023-05-11T13:00:08.529Z,98964.13
2023-05-11T13:02:34.831Z,98730.81
2023-05-11T13:05:09.678Z,98479.16
2023-05-11T13:07:35.913Z,98473.75
2023-05-11T13:10:02.117Z,98643.41
2023-05-11T13:12:30.988Z,98606.59
2023-05-11T13:15:07.677Z,98654.69
2023-05-11T13:17:34.574Z,98539.69
2023-05-11T13:20:19.726Z,98501.53
2023-05-11T13:22:46.402Z,98081.94
2023-05-11T13:25:13.697Z,98415.88
2023-05-11T13:27:39.910Z,98148.06
2023-05-11T13:30:06.433Z,98232.72
2023-05-11T13:32:32.768Z,98112.22
2023-05-11T13:35:02.120Z,98052.97
2023-05-11T13:37:28.321Z,98342.25
2023-05-11T13:39:54.541Z,98132.53
2023-05-11T13:42:20.750Z,98259.94
2023-05-11T13:44:46.965Z,98275.84
2023-05-11T13:47:13.223Z,98231.47
2023-05-11T13:49:39.459Z,98207.19
2023-05-11T13:52:05.757Z,98353.28
2023-05-11T13:54:31.979Z,98628.94
2023-05-11T13:56:58.244Z,98753.97
2023-05-11T13:59:24.465Z,98467.63
2023-05-11T14:01:50.785Z,98654.44
2023-05-11T14:04:17.175Z,98700.38
2023-05-11T14:06:43.445Z,98921.59
2023-05-11T14:09:09.641Z,98625.03
2023-05-11T14:11:37.963Z,98731.50
2023-05-11T14:14:05.517Z,98437.59
2023-05-11T14:16:31.727Z,98443.34
2023-05-11T14:18:58.062Z,98151.25
2023-05-11T14:21:24.346Z,98451.31
2023-05-11T14:24:06.666Z,98725.53
2023-05-11T14:26:36.961Z,98769.28
2023-05-11T14:29:03.167Z,98443.69
2023-05-11T14:31:30.771Z,98554.91
2023-05-11T14:33:57.136Z,98572.34
2023-05-11T14:36:23.423Z,98693.56
2023-05-11T14:38:49.631Z,98718.31
2023-05-11T14:41:15.882Z,98707.09
2023-05-11T14:43:42.145Z,98305.78
2023-05-11T14:46:08.372Z,98578.97
2023-05-11T14:48:34.594Z,98518.47
2023-05-11T14:51:00.806Z,98366.97
2023-05-11T14:53:27.019Z,98497.56
2023-05-11T14:55:53.252Z,98326.00
2023-05-11T14:58:19.472Z,98341.94
2023-05-11T15:00:45.683Z,98046.25
2023-05-11T15:03:11.934Z,98228.81
2023-05-11T15:05:38.189Z,98542.63
2023-05-11T15:08:04.533Z,98305.06
2023-05-11T15:10:30.859Z,98291.44
2023-05-11T15:12:57.104Z,98599.59
2023-05-11T15:15:23.319Z,98585.19
2023-05-11T15:17:49.619Z,98621.09
2023-05-11T15:20:16.328Z,98537.78
2023-05-11T15:22:42.550Z,98540.25
2023-05-11T15:25:09.024Z,98598.22
2023-05-11T15:27:35.273Z,98320.97
2023-05-11T15:30:01.564Z,98719.41
2023-05-11T15:32:27.820Z,98572.88
2023-05-11T15:34:59.668Z,98728.41
2023-05-11T15:37:26.253Z,98785.34
2023-05-11T15:39:52.690Z,98581.13
2023-05-11T15:42:18.904Z,98401.69
2023-05-11T15:44:45.119Z,98425.25
2023-05-11T15:47:11.334Z,98443.59
2023-05-11T15:49:37.535Z,98215.53
2023-05-11T15:52:03.952Z,98293.34
2023-05-11T15:54:30.177Z,98523.84
2023-05-11T15:56:56.400Z,98566.44
2023-05-11T15:59:22.677Z,98632.84
2023-05-11T16:01:48.933Z,98310.81
2023-05-11T16:04:15.160Z,98425.44
2023-05-11T16:06:41.385Z,98616.75
2023-05-11T16:09:07.827Z,98692.91
2023-05-11T16:11:34.051Z,98491.31
2023-05-11T16:14:00.267Z,98562.44
2023-05-11T16:16:26.730Z,98414.13
2023-05-11T16:18:52.972Z,98639.00
2023-05-11T16:21:19.246Z,98664.16
2023-05-11T16:23:45.538Z,98711.94
2023-05-11T16:26:11.947Z,98670.00
2023-05-11T16:28:38.169Z,98863.00
2023-05-11T16:31:04.402Z,98680.66
2023-05-11T16:33:30.610Z,98664.13
2023-05-11T16:35:56.833Z,98494.63
2023-05-11T16:38:23.044Z,98361.09
2023-05-11T16:40:49.515Z,98306.78
2023-05-11T16:43:15.854Z,98247.66
2023-05-11T16:45:45.156Z,98253.72
2023-05-11T16:48:11.376Z,98249.09
2023-05-11T16:50:37.601Z,98374.94
2023-05-11T16:53:04.256Z,98556.44
2023-05-11T16:55:30.624Z,98576.00
2023-05-11T16:57:56.834Z,98629.41
2023-05-11T17:00:24.744Z,98720.19
2023-05-11T17:02:51.072Z,98872.38
2023-05-11T17:05:17.371Z,98840.22
2023-05-11T17:07:43.636Z,98808.63
2023-05-11T17:10:10.229Z,98688.97
2023-05-11T17:12:36.475Z,98813.97
2023-05-11T17:15:02.715Z,98959.88
2023-05-11T17:17:28.948Z,99057.38
2023-05-11T17:19:55.193Z,99082.16
2023-05-11T17:22:21.404Z,99063.78
2023-05-11T17:24:47.641Z,99109.94
2023-05-11T17:27:13.872Z,99006.25
2023-05-11T17:29:42.341Z,99127.94
2023-05-11T17:32:08.632Z,99212.56
2023-05-11T17:34:34.948Z,99202.94
2023-05-11T17:37:01.224Z,99143.16
2023-05-11T17:39:27.437Z,99119.88
2023-05-11T17:41:53.664Z,99134.94
2023-05-11T17:44:19.861Z,99070.69
2023-05-11T17:46:46.084Z,99122.97
2023-05-11T17:49:12.279Z,99205.91
2023-05-11T17:51:38.490Z,99286.50
2023-05-11T17:54:04.694Z,99263.00
2023-05-11T17:56:30.898Z,99296.31
2023-05-11T17:58:57.128Z,99267.13
2023-05-11T18:01:23.390Z,99322.09
2023-05-11T18:03:49.884Z,99362.66
2023-05-11T18:06:16.236Z,99463.91
2023-05-11T18:08:42.454Z,99450.44
2023-05-11T18:11:08.659Z,99574.97
2023-05-11T18:13:35.186Z,99499.16
2023-05-11T18:16:01.412Z,99459.91
2023-05-11T18:18:27.702Z,99624.75
2023-05-11T18:20:53.988Z,99571.94
2023-05-11T18:23:20.212Z,99473.91
2023-05-11T18:25:46.421Z,99577.16
2023-05-11T18:28:12.643Z,99622.28
2023-05-11T18:30:38.854Z,99717.56
2023-05-11T18:33:05.362Z,99734.88
2023-05-11T18:35:31.628Z,99806.50
2023-05-11T18:37:57.842Z,99656.19
2023-05-11T18:40:24.075Z,99595.34
2023-05-11T18:42:52.205Z,99582.25
2023-05-11T18:45:18.441Z,99594.38
2023-05-11T18:47:44.749Z,99689.66
2023-05-11T18:50:11.064Z,99677.06
2023-05-11T18:52:37.302Z,99762.97
2023-05-11T18:55:03.534Z,99827.22
2023-05-11T18:57:29.743Z,99915.31
2023-05-11T18:59:55.974Z,99773.47
2023-05-11T19:02:22.320Z,99820.56
2023-05-11T19:04:48.581Z,99888.44
2023-05-11T19:07:15.503Z,99821.66
2023-05-11T19:09:42.697Z,99921.22
2023-05-11T19:12:08.977Z,99860.47
2023-05-11T19:14:35.176Z,99913.75
2023-05-11T19:17:02.031Z,99989.66
2023-05-11T19:19:28.282Z,99939.50
2023-05-11T19:21:54.496Z,99998.13
2023-05-11T19:24:20.713Z,100072.63
2023-05-11T19:26:55.430Z,100067.53
2023-05-11T19:29:29.083Z,100064.41
2023-05-11T19:31:55.434Z,100113.63
2023-05-11T19:34:21.673Z,100141.03
2023-05-11T19:36:47.901Z,100168.31
2023-05-11T19:39:14.129Z,100194.53
2023-05-11T19:41:40.364Z,100256.63
2023-05-11T19:44:06.578Z,100242.75
2023-05-11T19:46:32.870Z,100229.91
2023-05-11T19:48:59.106Z,100261.13
2023-05-11T19:51:25.330Z,100340.88
2023-05-11T19:53:51.540Z,100310.81
2023-05-11T19:56:17.751Z,100288.75
2023-05-11T19:58:43.952Z,100321.06
2023-05-11T20:01:10.196Z,100313.88
2023-05-11T20:03:36.497Z,100302.59
2023-05-11T20:06:02.761Z,100369.78
2023-05-11T20:08:28.953Z,100478.59
2023-05-11T20:10:55.155Z,100526.69
2023-05-11T20:13:21.910Z,100577.69
2023-05-11T20:15:48.246Z,100529.81
2023-05-11T20:18:14.474Z,100605.34
2023-05-11T20:20:40.726Z,100555.88
2023-05-11T20:23:06.935Z,100639.09
2023-05-11T20:25:33.184Z,100609.41
2023-05-11T20:27:59.392Z,100563.84
2023-05-11T20:30:25.635Z,100531.19
2023-05-11T20:35:21.084Z,100435.31
2023-05-11T20:37:47.386Z,100584.97
2023-05-11T20:40:13.658Z,100598.19
2023-05-11T20:42:39.886Z,100624.50
2023-05-11T20:45:06.821Z,100709.31
2023-05-11T20:47:33.476Z,100637.13
2023-05-11T20:49:59.729Z,100635.47
2023-05-11T20:52:25.957Z,100615.56
2023-05-11T20:54:52.167Z,100554.78
2023-05-11T20:57:18.448Z,100509.53
2023-05-11T21:02:13.828Z,100580.91
2023-05-11T21:04:40.346Z,100529.66
2023-05-11T21:07:06.578Z,100536.69
2023-05-11T21:09:32.784Z,100534.50
2023-05-11T21:11:59.010Z,100506.31
2023-05-11T21:14:25.216Z,100524.13
2023-05-11T21:16:51.465Z,100469.28
2023-05-11T21:19:17.708Z,100549.88
2023-05-11T21:21:43.937Z,100677.91
2023-05-11T21:24:10.153Z,100881.72
2023-05-11T21:26:36.386Z,100832.19
2023-05-11T21:29:02.599Z,100783.50
2023-05-11T21:31:28.983Z,100765.63
2023-05-11T21:33:55.266Z,100694.63
2023-05-11T21:36:21.494Z,100688.09
2023-05-11T21:38:47.713Z,100741.69
2023-05-11T21:41:13.929Z,100738.03
2023-05-11T21:43:40.190Z,100785.91
2023-05-11T21:46:06.440Z,100742.16
2023-05-11T21:48:32.716Z,100727.84
2023-05-11T21:50:58.941Z,100693.88
2023-05-11T21:53:25.150Z,100635.44
2023-05-11T21:55:51.376Z,100731.06
2023-05-11T21:58:17.610Z,100682.81
2023-05-11T22:00:43.849Z,100630.47
2023-05-11T22:03:10.139Z,100795.78
2023-05-11T22:05:36.374Z,100724.47
2023-05-11T22:08:13.261Z,100670.22
2023-05-11T22:10:40.853Z,100639.59
2023-05-11T22:13:07.057Z,100682.81
2023-05-11T22:15:33.283Z,100635.72
2023-05-11T22:17:59.544Z,100720.84
2023-05-11T22:20:25.791Z,100698.91
2023-05-11T22:22:52.002Z,100709.94
2023-05-11T22:25:18.284Z,100784.97
2023-05-11T22:27:44.483Z,100782.09
2023-05-11T22:30:10.928Z,100856.84
2023-05-11T22:32:37.176Z,100935.41
2023-05-11T22:35:03.644Z,100877.06
2023-05-11T22:37:30.485Z,100866.75
2023-05-11T22:39:56.712Z,100830.56
2023-05-11T22:42:22.931Z,100720.47
2023-05-11T22:44:49.154Z,100671.88
2023-05-11T22:47:15.372Z,100672.13
2023-05-11T22:49:41.604Z,100728.78
2023-05-11T22:52:07.816Z,100715.97
2023-05-11T22:54:34.028Z,100735.56
2023-05-11T22:57:01.194Z,100803.03
2023-05-11T22:59:27.417Z,100764.75
2023-05-11T23:01:53.649Z,100651.09
2023-05-11T23:04:19.882Z,100639.19
2023-05-11T23:06:46.087Z,100719.56
2023-05-11T23:09:12.290Z,100679.28
2023-05-11T23:11:38.521Z,100835.22
2023-05-11T23:14:04.732Z,100865.94
2023-05-11T23:16:30.942Z,100819.19
2023-05-11T23:18:57.209Z,100868.38
2023-05-11T23:21:23.497Z,100868.16
2023-05-11T23:23:49.714Z,100830.50
2023-05-11T23:26:15.937Z,100850.00
2023-05-11T23:28:42.166Z,100913.34
2023-05-11T23:31:08.424Z,100893.09
2023-05-11T23:33:34.661Z,100945.91
2023-05-11T23:36:00.880Z,100999.50
2023-05-11T23:38:27.083Z,100970.63
2023-05-11T23:40:53.620Z,100997.59
2023-05-11T23:43:19.833Z,101007.31
2023-05-11T23:45:46.048Z,101012.09
2023-05-11T23:48:12.263Z,101003.66
2023-05-11T23:50:38.517Z,100997.34
2023-05-11T23:53:04.719Z,101008.66
2023-05-11T23:55:30.938Z,100980.84
2023-05-11T23:57:58.788Z,100974.53
